This is the latest recevied weather packets stored in our database for station/object K1TTC. If no packets are shown the sender has not sent any weather packets the latest 1 day(s).
| Time | Temp. | Humidity | Pressure | Rain* | Wind** | Luminosity | Snow |
|---|---|---|---|---|---|---|---|
| 1778095449 | 18.89° C | 65% | 1007.9 hPa | 0.25 mm | - | 72 W/m² | - |
| 1778093649 | 20.56° C | 57% | 1008 hPa | 0 mm | - | 93 W/m² | - |
| 1778093051 | 21.11° C | 55% | 1008.2 hPa | 0 mm | - | 79 W/m² | - |
| 1778092447 | 21.11° C | 54% | 1008.1 hPa | 0 mm | - | 121 W/m² | - |
| 1778091244 | 22.22° C | 48% | 1008 hPa | 0 mm | - | 105 W/m² | - |
| 1778090042 | 22.78° C | 47% | 1008.2 hPa | 0 mm | - | 97 W/m² | - |
| 1778088843 | 22.78° C | 48% | 1008.3 hPa | 0 mm | - | 171 W/m² | - |
| 1778081042 | 22.22° C | 51% | 1009.9 hPa | 0 mm | - | 288 W/m² | - |
| 1778080442 | 22.22° C | 52% | 1010.2 hPa | 0 mm | - | 290 W/m² | - |
| 1778079377 | 21.67° C | 53% | 1010.4 hPa | 0 mm | - | 454 W/m² | - |
| 1778074442 | 19.44° C | 60% | 1010.5 hPa | 0 mm | - | 292 W/m² | - |
| 1778073241 | 18.89° C | 61% | 1010.6 hPa | 0 mm | - | 156 W/m² | - |
| 1778071442 | 18.33° C | 61% | 1010.6 hPa | 0 mm | - | 218 W/m² | - |
| 1778070243 | 18.33° C | 62% | 1010.8 hPa | 0 mm | - | 200 W/m² | - |
| 1778069041 | 17.78° C | 63% | 1010.4 hPa | 0 mm | - | 274 W/m² | - |
| 1778066640 | 17.22° C | 64% | 1011.2 hPa | 0 mm | - | 100 W/m² | - |
| 1778064841 | 16.11° C | 66% | 1011 hPa | 0 mm | - | 141 W/m² | - |
| 1778064238 | 16.11° C | 66% | 1011.1 hPa | 0 mm | - | 53 W/m² | - |
| 1778063038 | 16.11° C | 65% | 1010.9 hPa | 0 mm | - | 28 W/m² | - |
| 1778062438 | 16.11° C | 65% | 1010.9 hPa | 0 mm | - | 19 W/m² | - |
| 1778060633 | 16.11° C | 64% | 1010.8 hPa | 0 mm | - | 11 W/m² | - |
| 1778058830 | 16.11° C | 63% | 1010.8 hPa | 0 mm | - | 0 W/m² | - |
| 1778057628 | 16.67° C | 62% | 1010.8 hPa | 0 mm | - | 0 W/m² | - |
| 1778057030 | 16.67° C | 62% | 1010.9 hPa | 0 mm | - | 0 W/m² | - |
| 1778055902 | 16.67° C | 61% | 1011 hPa | 0 mm | - | 0 W/m² | - |
* Rain latest hour (hover to see other rain measurements)
** Current wind speed in m/s (hover to see current wind gust speed)